createdAt,value
2018-02-14T00:00:37.613Z,99.90
2018-02-14T00:03:05.269Z,99.90
2018-02-14T00:05:32.906Z,99.90
2018-02-14T00:08:00.576Z,99.90
2018-02-14T00:10:28.236Z,99.90
2018-02-14T00:12:55.951Z,99.90
2018-02-14T00:15:24.385Z,99.90
2018-02-14T00:17:52.045Z,99.90
2018-02-14T00:20:19.685Z,99.90
2018-02-14T00:22:48.108Z,99.90
2018-02-14T00:25:15.752Z,99.90
2018-02-14T00:27:43.432Z,99.90
2018-02-14T00:30:11.104Z,99.90
2018-02-14T00:32:38.760Z,99.90
2018-02-14T00:35:06.394Z,99.90
2018-02-14T00:37:34.064Z,99.90
2018-02-14T00:40:01.734Z,99.90
2018-02-14T00:42:29.374Z,99.90
2018-02-14T00:44:57.059Z,99.90
2018-02-14T00:47:24.685Z,99.90
2018-02-14T00:49:52.368Z,99.90
2018-02-14T00:52:19.993Z,99.90
2018-02-14T00:54:48.408Z,99.90
2018-02-14T00:57:16.067Z,99.90
2018-02-14T00:59:43.713Z,99.90
2018-02-14T01:02:11.356Z,99.90
2018-02-14T01:04:39.777Z,99.90
2018-02-14T01:07:07.414Z,99.90
2018-02-14T01:09:35.085Z,99.90
2018-02-14T01:12:02.736Z,99.90
2018-02-14T01:14:30.348Z,99.90
2018-02-14T01:16:58.033Z,99.90
2018-02-14T01:19:26.417Z,99.90
2018-02-14T01:21:54.828Z,99.90
2018-02-14T01:24:22.466Z,99.90
2018-02-14T01:26:50.109Z,99.90
2018-02-14T01:29:18.517Z,99.90
2018-02-14T01:31:46.183Z,99.90
2018-02-14T01:34:13.805Z,99.90
2018-02-14T01:36:41.450Z,99.90
2018-02-14T01:39:09.063Z,99.90
2018-02-14T01:41:36.691Z,99.90
2018-02-14T01:44:04.271Z,99.90
2018-02-14T01:46:32.634Z,99.90
2018-02-14T01:49:00.989Z,99.90
2018-02-14T01:51:28.619Z,99.90
2018-02-14T01:53:56.226Z,99.90
2018-02-14T01:56:24.582Z,99.90
2018-02-14T01:58:52.195Z,99.90
2018-02-14T02:01:19.798Z,99.90
2018-02-14T02:03:47.444Z,99.90
2018-02-14T02:06:15.023Z,99.90
2018-02-14T02:08:42.662Z,99.90
2018-02-14T02:11:10.274Z,99.90
2018-02-14T02:13:38.651Z,99.90
2018-02-14T02:16:07.009Z,99.90
2018-02-14T02:18:34.627Z,99.90
2018-02-14T02:21:02.255Z,99.90
2018-02-14T02:23:30.627Z,99.90
2018-02-14T02:25:58.990Z,99.90
2018-02-14T02:28:26.614Z,99.90
2018-02-14T02:30:54.201Z,99.90
2018-02-14T02:33:22.800Z,99.90
2018-02-14T02:35:50.386Z,99.90
2018-02-14T02:38:17.972Z,99.90
2018-02-14T02:40:45.580Z,99.90
2018-02-14T02:43:13.935Z,99.90
2018-02-14T02:45:41.550Z,99.90
2018-02-14T02:48:09.122Z,99.90
2018-02-14T02:50:36.744Z,99.90
2018-02-14T02:53:05.099Z,99.90
2018-02-14T02:55:32.728Z,99.90
2018-02-14T02:58:00.315Z,99.90
2018-02-14T03:00:27.927Z,99.90
2018-02-14T03:02:55.515Z,99.90
2018-02-14T03:05:23.118Z,99.90
2018-02-14T03:07:51.481Z,99.90
2018-02-14T03:10:19.108Z,99.90
2018-02-14T03:12:46.686Z,99.90
2018-02-14T03:15:14.303Z,99.90
2018-02-14T03:17:41.895Z,99.90
2018-02-14T03:20:09.467Z,99.90
2018-02-14T03:22:37.075Z,99.90
2018-02-14T03:25:04.659Z,99.90
2018-02-14T03:27:32.270Z,99.90
2018-02-14T03:30:00.619Z,99.90
2018-02-14T03:32:28.273Z,99.90
2018-02-14T03:34:55.851Z,99.90
2018-02-14T03:37:23.463Z,99.90
2018-02-14T03:39:51.048Z,99.90
2018-02-14T03:42:18.658Z,99.90
2018-02-14T03:44:47.025Z,99.90
2018-02-14T03:47:15.411Z,99.90
2018-02-14T03:49:43.755Z,99.90
2018-02-14T03:52:11.343Z,99.90
2018-02-14T03:54:38.981Z,99.90
2018-02-14T03:57:06.567Z,99.90
2018-02-14T03:59:34.950Z,99.90
2018-02-14T04:02:03.303Z,99.90
2018-02-14T04:04:30.915Z,99.90
2018-02-14T04:06:58.490Z,99.90
2018-02-14T04:09:26.096Z,99.90
2018-02-14T04:11:54.454Z,99.90
2018-02-14T04:14:22.079Z,99.90
2018-02-14T04:16:49.659Z,99.90
2018-02-14T04:19:17.283Z,99.90
2018-02-14T04:21:44.874Z,99.90
2018-02-14T04:24:12.484Z,99.90
2018-02-14T04:26:40.082Z,99.90
2018-02-14T04:29:07.683Z,99.90
2018-02-14T04:31:35.266Z,99.90
2018-02-14T04:34:02.875Z,99.90
2018-02-14T04:36:30.462Z,99.90
2018-02-14T04:38:58.097Z,99.90
2018-02-14T04:41:25.694Z,99.90
2018-02-14T04:43:54.071Z,99.90
2018-02-14T04:46:22.434Z,99.90
2018-02-14T04:48:50.049Z,99.90
2018-02-14T04:51:17.627Z,99.90
2018-02-14T04:53:45.287Z,99.90
2018-02-14T04:56:12.878Z,99.90
2018-02-14T04:58:41.230Z,99.90
2018-02-14T05:01:08.849Z,99.90
2018-02-14T05:03:36.448Z,99.90
2018-02-14T05:06:04.082Z,99.90
2018-02-14T05:08:31.681Z,99.90
2018-02-14T05:10:59.301Z,99.90
2018-02-14T05:13:26.879Z,99.90
2018-02-14T05:15:54.483Z,99.90
2018-02-14T05:18:22.850Z,99.90
2018-02-14T05:20:50.451Z,99.90
2018-02-14T05:23:18.049Z,99.90
2018-02-14T05:25:45.666Z,99.90
2018-02-14T05:28:13.246Z,99.90
2018-02-14T05:30:40.871Z,99.90
2018-02-14T05:33:09.238Z,99.90
2018-02-14T05:35:37.693Z,99.90
2018-02-14T05:38:05.300Z,99.90
2018-02-14T05:40:32.898Z,99.90
2018-02-14T05:43:00.529Z,99.90
2018-02-14T05:45:28.126Z,99.90
2018-02-14T05:47:55.744Z,99.90
2018-02-14T05:50:23.329Z,99.90
2018-02-14T05:52:50.927Z,99.90
2018-02-14T05:55:18.510Z,99.90
2018-02-14T05:57:46.137Z,99.90
2018-02-14T06:00:13.737Z,99.90
2018-02-14T06:02:41.362Z,99.90
2018-02-14T06:05:08.950Z,99.90
2018-02-14T06:07:37.365Z,99.90
2018-02-14T06:10:04.944Z,99.90
2018-02-14T06:12:32.547Z,99.90
2018-02-14T06:15:00.893Z,99.90
2018-02-14T06:17:28.504Z,99.90
2018-02-14T06:19:56.133Z,99.90
2018-02-14T06:22:24.479Z,99.90
2018-02-14T06:24:52.121Z,99.90
2018-02-14T06:27:19.706Z,99.90
2018-02-14T06:29:47.326Z,99.90
2018-02-14T06:32:14.935Z,99.90
2018-02-14T06:34:42.550Z,99.90
2018-02-14T06:37:10.125Z,99.90
2018-02-14T06:39:37.780Z,99.90
2018-02-14T06:42:05.392Z,99.90
2018-02-14T06:44:33.795Z,99.90
2018-02-14T06:47:01.402Z,99.90
2018-02-14T06:49:29.015Z,99.90
2018-02-14T06:51:56.601Z,99.90
2018-02-14T06:54:24.217Z,99.90
2018-02-14T06:56:58.326Z,99.90
2018-02-14T06:59:26.694Z,99.90
2018-02-14T07:01:55.051Z,99.90
2018-02-14T07:04:22.659Z,99.90
2018-02-14T07:06:50.235Z,99.90
2018-02-14T07:09:17.858Z,99.90
2018-02-14T07:11:46.219Z,99.90
2018-02-14T07:14:13.847Z,99.90
2018-02-14T07:16:41.486Z,99.90
2018-02-14T07:19:09.059Z,99.90
2018-02-14T07:21:36.672Z,99.90
2018-02-14T07:24:05.082Z,99.90
2018-02-14T07:26:32.740Z,99.90
2018-02-14T07:29:00.417Z,99.90
2018-02-14T07:31:28.093Z,99.90
2018-02-14T07:33:58.961Z,99.90
2018-02-14T07:36:26.603Z,99.90
2018-02-14T07:38:54.250Z,99.90
2018-02-14T07:41:21.878Z,99.90
2018-02-14T07:43:49.467Z,99.90
2018-02-14T07:46:17.076Z,99.90
2018-02-14T07:48:45.443Z,99.90
2018-02-14T07:51:13.838Z,99.90
2018-02-14T07:53:42.198Z,99.90
2018-02-14T07:56:09.820Z,99.90
2018-02-14T07:58:37.404Z,99.90
2018-02-14T08:01:05.032Z,99.90
2018-02-14T08:03:32.614Z,99.90
2018-02-14T08:06:01.008Z,99.90
2018-02-14T08:08:28.620Z,99.90
2018-02-14T08:10:56.464Z,99.90
2018-02-14T08:13:24.077Z,99.90
2018-02-14T08:15:51.733Z,99.90
2018-02-14T08:18:19.349Z,99.90
2018-02-14T08:20:47.704Z,99.90
2018-02-14T08:23:15.320Z,99.90
2018-02-14T08:25:42.917Z,99.90
2018-02-14T08:28:10.528Z,99.90
2018-02-14T08:30:38.115Z,99.90
2018-02-14T08:33:05.722Z,99.90
2018-02-14T08:35:34.080Z,99.90
2018-02-14T08:38:01.782Z,99.90
2018-02-14T08:40:29.359Z,99.90
2018-02-14T08:42:57.075Z,99.90
2018-02-14T08:45:25.410Z,99.90
2018-02-14T08:47:53.037Z,99.90
2018-02-14T08:50:20.633Z,99.90
2018-02-14T08:52:48.235Z,99.90
2018-02-14T08:55:16.621Z,99.90
2018-02-14T08:57:44.212Z,99.90
2018-02-14T09:00:11.834Z,99.90
2018-02-14T09:02:40.199Z,99.90
2018-02-14T09:05:08.596Z,99.90
2018-02-14T09:07:36.190Z,99.90
2018-02-14T09:10:03.808Z,99.90
2018-02-14T09:12:32.172Z,99.90
2018-02-14T09:14:59.796Z,99.90
2018-02-14T09:17:27.361Z,99.90
2018-02-14T09:19:54.964Z,99.90
2018-02-14T09:22:23.313Z,99.90
2018-02-14T09:24:50.925Z,99.90
2018-02-14T09:27:18.499Z,99.90
2018-02-14T09:29:46.120Z,99.90
2018-02-14T09:32:14.449Z,99.90
2018-02-14T09:34:42.015Z,99.90
2018-02-14T09:37:09.640Z,99.90
2018-02-14T09:39:37.252Z,99.90
2018-02-14T09:42:04.887Z,99.90
2018-02-14T09:44:33.246Z,99.90
2018-02-14T09:47:00.865Z,99.90
2018-02-14T09:49:29.225Z,99.90
2018-02-14T09:51:56.838Z,99.90
2018-02-14T09:54:24.632Z,99.90
2018-02-14T09:56:52.273Z,99.90
2018-02-14T09:59:19.881Z,99.90
2018-02-14T10:01:47.501Z,99.90
2018-02-14T10:04:15.097Z,99.10
2018-02-14T10:06:42.739Z,99.50
2018-02-14T10:09:10.322Z,99.90
2018-02-14T10:11:37.962Z,99.30
2018-02-14T10:14:05.533Z,99.00
2018-02-14T10:16:33.172Z,99.10
2018-02-14T10:19:00.781Z,97.90
2018-02-14T10:21:29.131Z,99.00
2018-02-14T10:23:56.751Z,99.00
2018-02-14T10:26:24.338Z,97.80
2018-02-14T10:28:51.957Z,97.50
2018-02-14T10:31:19.531Z,97.00
2018-02-14T10:33:47.131Z,97.70
2018-02-14T10:36:14.733Z,97.40
2018-02-14T10:38:42.356Z,97.00
2018-02-14T10:41:09.938Z,96.80
2018-02-14T10:43:38.291Z,96.20
2018-02-14T10:46:05.859Z,96.20
2018-02-14T10:48:33.462Z,95.60
2018-02-14T10:51:01.044Z,96.10
2018-02-14T10:53:28.660Z,95.50
2018-02-14T10:55:56.273Z,94.70
2018-02-14T10:58:24.400Z,95.30
2018-02-14T11:00:57.678Z,94.90
2018-02-14T11:03:31.096Z,94.60
2018-02-14T11:06:04.248Z,94.20
2018-02-14T11:08:31.894Z,94.40
2018-02-14T11:10:59.508Z,93.00
2018-02-14T11:13:27.100Z,92.50
2018-02-14T11:15:54.726Z,92.70
2018-02-14T11:18:22.317Z,92.60
2018-02-14T11:20:49.936Z,91.90
2018-02-14T11:23:17.517Z,91.90
2018-02-14T11:25:45.188Z,91.70
2018-02-14T11:28:12.773Z,91.20
2018-02-14T11:30:40.398Z,90.90
2018-02-14T11:33:07.992Z,91.30
2018-02-14T11:35:35.600Z,91.40
2018-02-14T11:38:03.195Z,91.20
2018-02-14T11:40:31.578Z,91.30
2018-02-14T11:42:59.170Z,91.10
2018-02-14T11:45:26.793Z,90.30
2018-02-14T11:47:54.394Z,89.10
2018-02-14T11:50:22.766Z,89.10
2018-02-14T11:52:50.386Z,89.00
2018-02-14T11:55:17.975Z,90.20
2018-02-14T11:57:45.590Z,90.90
2018-02-14T12:00:13.207Z,87.80
2018-02-14T12:02:41.609Z,86.30
2018-02-14T12:05:09.210Z,86.30
2018-02-14T12:07:37.079Z,88.90
2018-02-14T12:10:04.677Z,88.40
2018-02-14T12:12:33.089Z,86.30
2018-02-14T12:15:00.680Z,86.30
2018-02-14T12:17:28.311Z,90.40
2018-02-14T12:19:55.908Z,90.70
2018-02-14T12:22:24.276Z,90.40
2018-02-14T12:24:51.872Z,90.30
2018-02-14T12:27:20.276Z,90.00
2018-02-14T12:29:47.854Z,90.00
2018-02-14T12:32:15.447Z,90.90
2018-02-14T12:34:43.062Z,90.90
2018-02-14T12:37:10.659Z,90.40
2018-02-14T12:39:38.293Z,90.20
2018-02-14T12:42:05.903Z,90.40
2018-02-14T12:44:33.531Z,90.50
2018-02-14T12:47:01.137Z,91.00
2018-02-14T12:49:29.552Z,90.60
2018-02-14T12:51:57.161Z,90.60
2018-02-14T12:54:24.784Z,90.40
2018-02-14T12:56:52.361Z,90.50
2018-02-14T12:59:20.758Z,90.90
2018-02-14T13:01:48.344Z,90.80
2018-02-14T13:04:16.720Z,91.20
2018-02-14T13:06:44.333Z,91.20
2018-02-14T13:09:11.942Z,92.10
2018-02-14T13:11:39.659Z,91.20
2018-02-14T13:14:07.254Z,91.70
2018-02-14T13:16:35.658Z,89.70
2018-02-14T13:19:03.236Z,89.70
2018-02-14T13:21:31.396Z,90.30
2018-02-14T13:23:58.982Z,90.50
2018-02-14T13:26:26.599Z,90.50
2018-02-14T13:28:54.181Z,91.30
2018-02-14T13:31:21.793Z,91.20
2018-02-14T13:33:50.145Z,90.70
2018-02-14T13:36:17.755Z,90.70
2018-02-14T13:38:45.341Z,90.60
2018-02-14T13:41:12.949Z,90.70
2018-02-14T13:43:40.533Z,91.40
2018-02-14T13:46:08.158Z,91.00
2018-02-14T13:48:35.730Z,91.00
2018-02-14T13:51:04.171Z,90.60
2018-02-14T13:53:31.776Z,90.60
2018-02-14T13:56:00.137Z,89.10
2018-02-14T13:58:27.736Z,89.10
2018-02-14T14:00:55.320Z,89.70
2018-02-14T14:03:22.939Z,86.50
2018-02-14T14:05:51.271Z,81.80
2018-02-14T14:08:18.874Z,81.80
2018-02-14T14:10:47.220Z,78.30
2018-02-14T14:13:14.810Z,78.10
2018-02-14T14:15:43.143Z,79.80
2018-02-14T14:18:10.756Z,80.60
2018-02-14T14:20:38.330Z,78.70
2018-02-14T14:23:05.948Z,80.10
2018-02-14T14:25:33.506Z,80.70
2018-02-14T14:28:01.090Z,79.20
2018-02-14T14:30:28.715Z,80.80
2018-02-14T14:32:56.279Z,83.00
2018-02-14T14:35:23.898Z,84.60
2018-02-14T14:37:51.486Z,83.00
2018-02-14T14:40:19.090Z,83.50
2018-02-14T14:42:47.429Z,83.90
2018-02-14T14:45:15.038Z,83.10
2018-02-14T14:47:42.610Z,84.50
2018-02-14T14:50:10.216Z,86.50
2018-02-14T14:52:37.792Z,84.00
2018-02-14T14:55:06.151Z,82.60
2018-02-14T14:57:33.733Z,82.50
2018-02-14T15:00:02.121Z,84.00
2018-02-14T15:02:30.487Z,83.80
2018-02-14T15:04:58.815Z,83.40
2018-02-14T15:07:26.426Z,83.40
2018-02-14T15:09:54.768Z,85.50
2018-02-14T15:12:22.374Z,85.40
2018-02-14T15:14:49.961Z,85.00
2018-02-14T15:17:17.568Z,85.10
2018-02-14T15:19:45.136Z,86.30
2018-02-14T15:22:13.510Z,85.60
2018-02-14T15:24:41.078Z,85.60
2018-02-14T15:27:09.442Z,84.80
2018-02-14T15:29:37.025Z,84.70
2018-02-14T15:32:04.685Z,85.70
2018-02-14T15:34:33.032Z,87.30
2018-02-14T15:37:00.639Z,87.20
2018-02-14T15:39:28.227Z,87.30
2018-02-14T15:41:55.871Z,87.20
2018-02-14T15:44:23.475Z,87.90
2018-02-14T15:46:51.060Z,86.70
2018-02-14T15:49:19.445Z,88.10
2018-02-14T15:51:47.043Z,88.10
2018-02-14T15:54:14.664Z,88.60
2018-02-14T15:56:42.258Z,88.60
2018-02-14T15:59:09.931Z,89.00
2018-02-14T16:01:37.483Z,89.50
2018-02-14T16:04:05.090Z,90.10
2018-02-14T16:06:33.432Z,90.70
2018-02-14T16:09:01.047Z,90.70
2018-02-14T16:11:28.624Z,90.90
2018-02-14T16:13:56.247Z,91.00
2018-02-14T16:16:24.599Z,91.60
2018-02-14T16:18:52.221Z,91.60
2018-02-14T16:21:20.572Z,91.80
2018-02-14T16:23:48.206Z,91.80
2018-02-14T16:26:15.791Z,92.10
2018-02-14T16:28:44.174Z,92.60
2018-02-14T16:31:11.817Z,92.60
2018-02-14T16:33:40.169Z,92.70
2018-02-14T16:36:07.784Z,92.70
2018-02-14T16:38:35.374Z,92.70
2018-02-14T16:41:02.991Z,93.00
2018-02-14T16:43:30.599Z,93.20
2018-02-14T16:45:58.199Z,93.40
2018-02-14T16:48:26.539Z,93.70
2018-02-14T16:50:54.131Z,93.70
2018-02-14T16:53:22.483Z,93.90
2018-02-14T16:55:50.084Z,93.90
2018-02-14T16:58:18.421Z,94.00
2018-02-14T17:00:46.034Z,93.90
2018-02-14T17:03:13.620Z,94.10
2018-02-14T17:05:41.233Z,94.20
2018-02-14T17:08:09.606Z,94.70
2018-02-14T17:10:37.954Z,94.70
2018-02-14T17:13:05.726Z,94.70
2018-02-14T17:15:33.308Z,94.90
2018-02-14T17:18:01.712Z,95.10
2018-02-14T17:20:29.379Z,95.10
2018-02-14T17:22:57.014Z,95.70
2018-02-14T17:25:25.352Z,95.60
2018-02-14T17:27:52.965Z,95.60
2018-02-14T17:30:20.560Z,95.70
2018-02-14T17:32:48.193Z,96.10
2018-02-14T17:35:15.776Z,96.40
2018-02-14T17:37:43.389Z,96.50
2018-02-14T17:40:10.971Z,96.70
2018-02-14T17:42:38.592Z,96.60
2018-02-14T17:45:06.367Z,97.00
2018-02-14T17:47:34.712Z,97.40
2018-02-14T17:50:02.476Z,97.40
2018-02-14T17:52:30.088Z,97.60
2018-02-14T17:54:57.709Z,97.60
2018-02-14T17:57:25.300Z,97.70
2018-02-14T17:59:52.904Z,97.70
2018-02-14T18:02:20.487Z,97.90
2018-02-14T18:04:48.100Z,98.00
2018-02-14T18:07:15.701Z,98.00
2018-02-14T18:09:43.340Z,98.30
2018-02-14T18:12:11.074Z,98.20
2018-02-14T18:14:38.675Z,98.30
2018-02-14T18:17:06.293Z,98.70
2018-02-14T18:19:33.876Z,98.80
2018-02-14T18:22:01.507Z,98.90
2018-02-14T18:24:29.099Z,99.00
2018-02-14T18:26:56.743Z,98.90
2018-02-14T18:29:24.352Z,98.70
2018-02-14T18:31:51.990Z,98.70
2018-02-14T18:34:19.609Z,98.70
2018-02-14T18:36:47.227Z,98.80
2018-02-14T18:39:14.833Z,99.00
2018-02-14T18:41:42.473Z,99.10
2018-02-14T18:44:10.846Z,99.30
2018-02-14T18:46:39.201Z,99.40
2018-02-14T18:49:06.801Z,99.30
2018-02-14T18:51:34.402Z,99.70
2018-02-14T18:54:02.013Z,99.80
2018-02-14T18:56:30.350Z,99.90
2018-02-14T18:58:57.960Z,99.90
2018-02-14T19:01:25.556Z,99.90
2018-02-14T19:03:53.155Z,99.90
2018-02-14T19:06:21.507Z,99.90
2018-02-14T19:08:49.109Z,99.90
2018-02-14T19:11:17.454Z,99.90
2018-02-14T19:13:45.067Z,99.90
2018-02-14T19:16:12.650Z,99.90
2018-02-14T19:18:40.285Z,99.90
2018-02-14T19:21:07.872Z,99.90
2018-02-14T19:23:35.458Z,99.90
2018-02-14T19:26:03.106Z,99.90
2018-02-14T19:28:30.706Z,99.90
2018-02-14T19:30:58.343Z,99.90
2018-02-14T19:33:25.945Z,99.90
2018-02-14T19:35:53.559Z,99.90
2018-02-14T19:38:21.138Z,99.90
2018-02-14T19:40:49.512Z,99.90
2018-02-14T19:43:17.860Z,99.90
2018-02-14T19:45:45.480Z,99.90
2018-02-14T19:48:13.064Z,99.90
2018-02-14T19:50:40.692Z,99.90
2018-02-14T19:53:08.275Z,99.90
2018-02-14T19:55:35.865Z,99.90
2018-02-14T19:58:03.473Z,99.90
2018-02-14T20:00:31.075Z,99.90
2018-02-14T20:02:58.692Z,99.90
2018-02-14T20:05:26.269Z,99.90
2018-02-14T20:07:53.874Z,99.90
2018-02-14T20:10:21.450Z,99.90
2018-02-14T20:12:49.822Z,99.90
2018-02-14T20:15:18.182Z,99.90
2018-02-14T20:17:45.808Z,99.90
2018-02-14T20:20:13.381Z,99.90
2018-02-14T20:22:41.028Z,99.90
2018-02-14T20:25:08.610Z,99.90
2018-02-14T20:27:36.241Z,99.90
2018-02-14T20:30:03.836Z,99.90
2018-02-14T20:32:31.457Z,99.90
2018-02-14T20:34:59.052Z,99.90
2018-02-14T20:37:26.629Z,99.90
2018-02-14T20:39:54.243Z,99.90
2018-02-14T20:42:24.172Z,99.90
2018-02-14T20:44:53.802Z,99.90
2018-02-14T20:47:21.396Z,99.90
2018-02-14T20:49:48.996Z,99.90
2018-02-14T20:52:16.614Z,99.90
2018-02-14T20:54:44.236Z,99.90
2018-02-14T20:57:11.814Z,99.90
2018-02-14T20:59:39.426Z,99.90
2018-02-14T21:04:40.037Z,99.90
2018-02-14T21:07:08.412Z,99.90
2018-02-14T21:09:36.819Z,99.90
2018-02-14T21:12:04.444Z,99.90
2018-02-14T21:14:32.846Z,99.90
2018-02-14T21:17:00.451Z,99.90
2018-02-14T21:19:28.071Z,99.90
2018-02-14T21:21:55.704Z,99.90
2018-02-14T21:24:24.071Z,99.90
2018-02-14T21:26:51.702Z,99.90
2018-02-14T21:29:19.301Z,99.90
2018-02-14T21:31:47.892Z,99.90
2018-02-14T21:34:16.275Z,99.90
2018-02-14T21:36:43.917Z,99.90
2018-02-14T21:39:11.526Z,99.90
2018-02-14T21:41:39.164Z,99.90
2018-02-14T21:44:06.768Z,99.90
2018-02-14T21:46:35.879Z,99.90
2018-02-14T21:49:03.598Z,99.90
2018-02-14T21:51:31.234Z,99.90
2018-02-14T21:53:59.598Z,99.90
2018-02-14T21:56:28.003Z,99.90
2018-02-14T21:58:55.614Z,99.90
2018-02-14T22:01:23.219Z,99.90
2018-02-14T22:03:50.855Z,99.90
2018-02-14T22:06:19.227Z,99.90
2018-02-14T22:08:47.625Z,99.90
2018-02-14T22:11:16.023Z,99.90
2018-02-14T22:13:43.676Z,99.90
2018-02-14T22:16:11.309Z,99.90
2018-02-14T22:18:39.751Z,99.90
2018-02-14T22:21:07.355Z,99.90
2018-02-14T22:23:35.764Z,99.90
2018-02-14T22:26:03.613Z,99.90
2018-02-14T22:28:31.273Z,99.90
2018-02-14T22:30:59.646Z,99.90
2018-02-14T22:33:28.039Z,99.90
2018-02-14T22:35:55.666Z,99.90
2018-02-14T22:38:24.080Z,99.90
2018-02-14T22:40:51.748Z,99.90
2018-02-14T22:43:19.416Z,99.90
2018-02-14T22:45:47.043Z,99.90
2018-02-14T22:48:15.411Z,99.90
2018-02-14T22:50:43.817Z,99.90
2018-02-14T22:53:11.430Z,99.90
2018-02-14T22:55:39.062Z,99.90
2018-02-14T22:58:06.661Z,99.90
2018-02-14T23:00:34.299Z,99.90
2018-02-14T23:03:01.918Z,99.90
2018-02-14T23:05:29.543Z,99.90
2018-02-14T23:07:57.166Z,99.90
2018-02-14T23:10:24.808Z,99.90
2018-02-14T23:12:52.431Z,99.90
2018-02-14T23:15:20.839Z,99.90
2018-02-14T23:17:48.438Z,99.90
2018-02-14T23:20:16.095Z,99.90
2018-02-14T23:22:43.713Z,99.90
2018-02-14T23:25:11.368Z,99.90
2018-02-14T23:27:39.756Z,99.90
2018-02-14T23:30:07.477Z,99.90
2018-02-14T23:32:35.116Z,99.90
2018-02-14T23:35:02.856Z,99.90
2018-02-14T23:37:30.497Z,99.90
2018-02-14T23:39:58.103Z,99.90
2018-02-14T23:42:25.755Z,99.90
2018-02-14T23:44:53.377Z,99.90
2018-02-14T23:47:21.773Z,99.90
2018-02-14T23:49:49.394Z,99.90
2018-02-14T23:52:17.805Z,99.90
2018-02-14T23:54:45.419Z,99.90
2018-02-14T23:57:13.215Z,99.90
2018-02-14T23:59:41.588Z,99.90
